createdAt,value
2022-08-03T00:00:29.041Z,18.35
2022-08-03T00:05:48.370Z,18.55
2022-08-03T00:10:55.864Z,18.55
2022-08-03T00:16:03.413Z,18.55
2022-08-03T00:21:10.887Z,18.55
2022-08-03T00:26:18.459Z,18.35
2022-08-03T00:31:25.900Z,18.35
2022-08-03T00:36:32.217Z,18.35
2022-08-03T00:41:41.208Z,18.35
2022-08-03T00:46:48.320Z,18.35
2022-08-03T00:51:55.763Z,18.05
2022-08-03T00:57:02.371Z,18.05
2022-08-03T01:02:10.291Z,17.85
2022-08-03T01:07:17.362Z,17.85
2022-08-03T01:12:25.428Z,17.65
2022-08-03T01:17:32.446Z,17.65
2022-08-03T01:22:40.220Z,17.45
2022-08-03T01:27:47.984Z,17.45
2022-08-03T01:32:54.898Z,17.45
2022-08-03T01:38:02.462Z,17.45
2022-08-03T01:43:11.354Z,17.45
2022-08-03T01:48:19.660Z,17.45
2022-08-03T01:53:28.272Z,17.25
2022-08-03T01:58:35.133Z,17.25
2022-08-03T02:03:42.906Z,17.05
2022-08-03T02:08:50.133Z,17.05
2022-08-03T02:13:56.727Z,17.05
2022-08-03T02:19:04.531Z,17.05
2022-08-03T02:24:11.729Z,17.05
2022-08-03T02:29:19.596Z,17.05
2022-08-03T02:34:27.041Z,16.85
2022-08-03T02:39:34.822Z,16.85
2022-08-03T02:44:41.843Z,16.85
2022-08-03T02:49:48.355Z,16.85
2022-08-03T02:54:56.212Z,16.85
2022-08-03T03:00:04.053Z,16.85
2022-08-03T03:05:11.273Z,16.85
2022-08-03T03:10:18.402Z,16.85
2022-08-03T03:15:31.407Z,16.85
2022-08-03T03:20:38.360Z,16.85
2022-08-03T03:25:45.909Z,16.85
2022-08-03T03:30:53.712Z,16.85
2022-08-03T03:36:01.408Z,16.65
2022-08-03T03:41:08.061Z,16.65
2022-08-03T03:46:16.011Z,16.65
2022-08-03T03:51:23.940Z,16.65
2022-08-03T03:56:30.968Z,16.65
2022-08-03T04:01:38.798Z,16.65
2022-08-03T04:06:51.092Z,16.85
2022-08-03T04:11:59.193Z,17.05
2022-08-03T04:17:07.280Z,17.65
2022-08-03T04:22:15.211Z,18.05
2022-08-03T04:27:23.910Z,18.95
2022-08-03T04:32:31.924Z,19.65
2022-08-03T04:37:40.142Z,20.05
2022-08-03T04:42:47.250Z,20.25
2022-08-03T04:47:54.874Z,20.45
2022-08-03T04:53:01.647Z,20.65
2022-08-03T04:58:11.278Z,20.95
2022-08-03T05:03:18.606Z,21.35
2022-08-03T05:08:25.381Z,21.55
2022-08-03T05:13:33.011Z,22.05
2022-08-03T05:18:39.601Z,22.25
2022-08-03T05:23:46.772Z,22.65
2022-08-03T05:28:55.255Z,23.15
2022-08-03T05:35:34.280Z,23.55
2022-08-03T05:40:40.662Z,24.25
2022-08-03T05:45:49.086Z,24.65
2022-08-03T05:50:56.247Z,25.35
2022-08-03T05:56:03.457Z,25.85
2022-08-03T06:01:11.573Z,26.45
2022-08-03T06:06:19.096Z,26.75
2022-08-03T06:11:26.305Z,27.15
2022-08-03T06:16:34.139Z,27.45
2022-08-03T06:21:41.367Z,27.85
2022-08-03T06:26:49.647Z,28.35
2022-08-03T06:31:57.304Z,28.75
2022-08-03T06:37:05.336Z,29.05
2022-08-03T06:42:13.409Z,29.45
2022-08-03T06:47:21.731Z,29.75
2022-08-03T06:52:28.998Z,29.95
2022-08-03T06:57:36.792Z,30.15
2022-08-03T07:02:44.956Z,30.15
2022-08-03T07:07:52.734Z,30.45
2022-08-03T07:13:00.874Z,30.45
2022-08-03T07:18:08.847Z,30.65
2022-08-03T07:23:16.722Z,30.65
2022-08-03T07:28:25.689Z,30.85
2022-08-03T07:34:13.389Z,30.85
2022-08-03T07:39:19.915Z,31.15
2022-08-03T07:44:28.351Z,31.35
2022-08-03T07:49:35.583Z,31.35
2022-08-03T07:54:44.563Z,31.55
2022-08-03T07:59:54.253Z,31.85
2022-08-03T08:05:02.881Z,32.05
2022-08-03T08:10:11.307Z,32.25
2022-08-03T08:15:18.615Z,32.75
2022-08-03T08:20:25.872Z,33.05
2022-08-03T08:25:34.075Z,33.05
2022-08-03T08:30:41.955Z,33.25
2022-08-03T08:35:51.117Z,33.25
2022-08-03T08:40:58.438Z,33.45
2022-08-03T08:46:05.932Z,33.75
2022-08-03T08:51:13.847Z,33.95
2022-08-03T08:56:22.159Z,34.45
2022-08-03T09:01:29.835Z,34.95
2022-08-03T09:06:38.307Z,34.95
2022-08-03T09:11:45.707Z,35.35
2022-08-03T09:16:52.051Z,35.35
2022-08-03T09:21:59.428Z,35.15
2022-08-03T09:27:06.968Z,35.15
2022-08-03T09:32:23.125Z,35.35
2022-08-03T09:37:31.072Z,35.65
2022-08-03T09:42:37.731Z,35.35
2022-08-03T09:47:44.842Z,35.35
2022-08-03T09:52:56.333Z,35.35
2022-08-03T09:58:03.767Z,35.35
2022-08-03T10:03:11.610Z,35.65
2022-08-03T10:08:19.839Z,35.85
2022-08-03T10:13:27.502Z,35.85
2022-08-03T10:18:34.664Z,36.15
2022-08-03T10:23:43.053Z,36.65
2022-08-03T10:28:51.006Z,36.65
2022-08-03T10:33:58.620Z,36.65
2022-08-03T10:39:05.917Z,36.85
2022-08-03T10:44:13.016Z,36.85
2022-08-03T10:49:20.243Z,36.85
2022-08-03T10:54:28.031Z,36.65
2022-08-03T10:59:35.277Z,36.65
2022-08-03T11:04:43.610Z,36.65
2022-08-03T11:09:51.577Z,36.65
2022-08-03T11:14:58.970Z,36.65
2022-08-03T11:20:07.112Z,36.85
2022-08-03T11:25:13.819Z,36.85
2022-08-03T11:30:21.659Z,36.85
2022-08-03T11:35:28.865Z,36.85
2022-08-03T11:40:36.031Z,37.05
2022-08-03T11:45:42.613Z,37.35
2022-08-03T11:50:51.413Z,37.35
2022-08-03T11:55:59.103Z,37.55
2022-08-03T12:01:06.550Z,37.55
2022-08-03T12:06:13.923Z,37.55
2022-08-03T12:11:20.538Z,37.85
2022-08-03T12:16:27.960Z,37.85
2022-08-03T12:21:36.719Z,37.85
2022-08-03T12:27:34.675Z,38.05
2022-08-03T12:32:41.203Z,38.05
2022-08-03T12:37:49.658Z,38.05
2022-08-03T12:42:56.857Z,38.05
2022-08-03T12:48:05.046Z,38.05
2022-08-03T12:53:12.539Z,38.05
2022-08-03T12:58:21.056Z,38.05
2022-08-03T13:03:29.699Z,38.05
2022-08-03T13:08:38.144Z,38.05
2022-08-03T13:13:45.815Z,38.05
2022-08-03T13:18:54.514Z,38.05
2022-08-03T13:24:02.377Z,38.35
2022-08-03T13:29:08.691Z,38.05
2022-08-03T13:34:15.889Z,38.05
2022-08-03T13:39:24.333Z,38.05
2022-08-03T13:44:31.941Z,38.05
2022-08-03T13:49:39.446Z,38.05
2022-08-03T13:54:46.559Z,38.05
2022-08-03T13:59:53.853Z,38.05
2022-08-03T14:05:02.082Z,38.05
2022-08-03T14:10:10.343Z,37.85
2022-08-03T14:15:18.308Z,37.85
2022-08-03T14:20:26.961Z,38.05
2022-08-03T14:25:34.695Z,38.05
2022-08-03T14:30:41.498Z,38.05
2022-08-03T14:35:48.965Z,37.85
2022-08-03T14:40:56.964Z,37.85
2022-08-03T14:46:04.884Z,37.85
2022-08-03T14:51:13.090Z,37.55
2022-08-03T14:56:21.212Z,37.55
2022-08-03T15:01:44.421Z,37.55
2022-08-03T15:06:52.363Z,37.35
2022-08-03T15:12:00.207Z,37.35
2022-08-03T15:17:14.705Z,37.35
2022-08-03T15:22:23.445Z,37.05
2022-08-03T15:27:30.803Z,36.85
2022-08-03T15:32:37.413Z,36.65
2022-08-03T15:38:01.141Z,36.65
2022-08-03T15:43:08.844Z,36.35
2022-08-03T15:48:16.889Z,36.15
2022-08-03T15:53:24.381Z,35.85
2022-08-03T15:58:30.655Z,35.85
2022-08-03T16:03:38.007Z,35.65
2022-08-03T16:08:45.058Z,35.35
2022-08-03T16:13:53.214Z,34.95
2022-08-03T16:19:00.088Z,34.45
2022-08-03T16:24:08.179Z,33.95
2022-08-03T16:29:16.246Z,33.25
2022-08-03T16:34:22.934Z,33.05
2022-08-03T16:39:31.171Z,32.55
2022-08-03T16:44:39.854Z,32.55
2022-08-03T16:49:47.468Z,32.05
2022-08-03T16:54:53.663Z,31.85
2022-08-03T17:00:00.216Z,31.35
2022-08-03T17:05:07.413Z,31.15
2022-08-03T17:10:14.871Z,30.85
2022-08-03T17:15:23.435Z,30.65
2022-08-03T17:20:30.961Z,30.45
2022-08-03T17:25:37.496Z,30.15
2022-08-03T17:30:45.966Z,29.75
2022-08-03T17:35:53.825Z,29.05
2022-08-03T17:41:01.716Z,28.75
2022-08-03T17:46:09.088Z,28.35
2022-08-03T17:51:16.795Z,27.85
2022-08-03T17:56:23.897Z,27.45
2022-08-03T18:01:31.875Z,26.95
2022-08-03T18:06:39.446Z,26.75
2022-08-03T18:11:46.858Z,26.25
2022-08-03T18:16:54.221Z,26.05
2022-08-03T18:22:01.477Z,25.55
2022-08-03T18:27:10.042Z,25.35
2022-08-03T18:32:17.490Z,24.95
2022-08-03T18:37:24.123Z,24.65
2022-08-03T18:42:31.692Z,24.65
2022-08-03T18:47:37.825Z,24.45
2022-08-03T18:52:46.003Z,24.25
2022-08-03T18:57:53.537Z,24.05
2022-08-03T19:03:01.275Z,23.55
2022-08-03T19:08:07.934Z,23.35
2022-08-03T19:13:15.122Z,23.15
2022-08-03T19:18:22.995Z,22.95
2022-08-03T19:23:29.990Z,22.65
2022-08-03T19:28:37.690Z,22.45
2022-08-03T19:33:45.181Z,22.45
2022-08-03T19:38:52.318Z,22.25
2022-08-03T19:43:59.544Z,22.25
2022-08-03T19:49:06.778Z,22.05
2022-08-03T19:54:14.265Z,22.05
2022-08-03T19:59:22.970Z,21.75
2022-08-03T20:04:30.163Z,21.75
2022-08-03T20:09:37.510Z,21.55
2022-08-03T20:14:46.746Z,21.35
2022-08-03T20:19:54.979Z,21.15
2022-08-03T20:25:03.280Z,20.95
2022-08-03T20:30:11.859Z,20.65
2022-08-03T20:35:20.975Z,20.65
2022-08-03T20:40:29.018Z,20.65
2022-08-03T20:45:36.480Z,20.45
2022-08-03T20:50:44.483Z,20.25
2022-08-03T20:55:52.283Z,20.25
2022-08-03T21:01:00.080Z,20.05
2022-08-03T21:06:07.154Z,19.85
2022-08-03T21:11:15.676Z,19.85
2022-08-03T21:16:22.633Z,19.65
2022-08-03T21:21:30.042Z,19.65
2022-08-03T21:26:37.595Z,19.65
2022-08-03T21:31:44.647Z,19.65
2022-08-03T21:36:52.087Z,19.35
2022-08-03T21:42:00.411Z,19.35
2022-08-03T21:47:10.505Z,19.15
2022-08-03T21:52:18.731Z,19.15
2022-08-03T21:57:27.147Z,19.15
2022-08-03T22:02:35.462Z,19.15
2022-08-03T22:07:41.658Z,18.95
2022-08-03T22:12:49.462Z,18.75
2022-08-03T22:17:56.699Z,18.75
2022-08-03T22:23:04.410Z,18.75
2022-08-03T22:28:12.488Z,18.75
2022-08-03T22:33:20.425Z,18.75
2022-08-03T22:39:05.814Z,18.55
2022-08-03T22:44:13.491Z,18.55
2022-08-03T22:49:22.387Z,18.55
2022-08-03T22:54:31.284Z,18.55
2022-08-03T22:59:39.100Z,18.55
2022-08-03T23:04:46.434Z,18.55
2022-08-03T23:09:53.958Z,18.35
2022-08-03T23:15:00.976Z,18.35
2022-08-03T23:20:08.745Z,18.05
2022-08-03T23:25:15.101Z,18.05
2022-08-03T23:30:22.937Z,18.05
2022-08-03T23:35:31.842Z,18.05
2022-08-03T23:40:38.617Z,18.05
2022-08-03T23:45:46.258Z,17.85
2022-08-03T23:50:54.240Z,17.85
2022-08-03T23:56:02.006Z,17.65
